createdAt,value
2017-11-30T00:01:05.545Z,98244.89
2017-11-30T00:03:37.295Z,98245.29
2017-11-30T00:06:08.486Z,98256.44
2017-11-30T00:08:40.642Z,98254.14
2017-11-30T00:11:11.601Z,98256.34
2017-11-30T00:13:43.093Z,98246.23
2017-11-30T00:16:14.728Z,98240.27
2017-11-30T00:18:46.220Z,98244.17
2017-11-30T00:21:17.419Z,98240.00
2017-11-30T00:23:49.511Z,98243.84
2017-11-30T00:26:21.954Z,98242.52
2017-11-30T00:28:56.215Z,98220.48
2017-11-30T00:31:27.509Z,98226.77
2017-11-30T00:33:58.896Z,98222.06
2017-11-30T00:36:30.504Z,98226.30
2017-11-30T00:39:01.756Z,98216.48
2017-11-30T00:41:33.486Z,98219.77
2017-11-30T00:44:13.604Z,98215.31
2017-11-30T00:46:44.828Z,98222.27
2017-11-30T00:49:16.274Z,98223.76
2017-11-30T00:51:47.642Z,98220.45
2017-11-30T00:54:18.821Z,98219.61
2017-11-30T00:56:50.614Z,98211.42
2017-11-30T00:59:22.565Z,98219.21
2017-11-30T01:01:54.646Z,98221.00
2017-11-30T01:04:26.521Z,98215.52
2017-11-30T01:06:57.423Z,98218.34
2017-11-30T01:09:28.455Z,98216.84
2017-11-30T01:11:59.916Z,98217.39
2017-11-30T01:14:31.439Z,98215.22
2017-11-30T01:17:02.550Z,98221.24
2017-11-30T01:19:34.679Z,98213.03
2017-11-30T01:22:06.741Z,98217.52
2017-11-30T01:24:38.060Z,98219.55
2017-11-30T01:27:09.153Z,98214.86
2017-11-30T01:29:40.451Z,98221.12
2017-11-30T01:32:11.920Z,98218.00
2017-11-30T01:34:43.361Z,98217.46
2017-11-30T01:37:14.696Z,98213.70
2017-11-30T01:39:46.573Z,98210.19
2017-11-30T01:42:17.906Z,98209.19
2017-11-30T01:44:49.271Z,98209.83
2017-11-30T01:47:21.743Z,98210.91
2017-11-30T01:49:53.678Z,98209.25
2017-11-30T01:52:25.167Z,98210.25
2017-11-30T01:54:57.234Z,98218.95
2017-11-30T01:57:31.617Z,98215.46
2017-11-30T02:00:03.187Z,98210.22
2017-11-30T02:02:35.341Z,98199.47
2017-11-30T02:05:07.557Z,98209.09
2017-11-30T02:07:39.569Z,98204.41
2017-11-30T02:10:10.873Z,98203.52
2017-11-30T02:12:44.002Z,98199.83
2017-11-30T02:15:17.507Z,98203.77
2017-11-30T02:17:48.699Z,98202.25
2017-11-30T02:20:22.093Z,98198.34
2017-11-30T02:23:00.630Z,98193.22
2017-11-30T02:25:38.995Z,98164.80
2017-11-30T02:28:13.661Z,98198.94
2017-11-30T02:31:00.717Z,98205.80
2017-11-30T02:33:36.184Z,98211.07
2017-11-30T02:36:09.470Z,98205.55
2017-11-30T02:38:44.784Z,98212.60
2017-11-30T02:41:16.580Z,98209.84
2017-11-30T02:43:49.385Z,98197.50
2017-11-30T02:46:25.351Z,98194.45
2017-11-30T02:49:00.148Z,98204.66
2017-11-30T02:51:41.760Z,98202.30
2017-11-30T02:54:13.960Z,98208.70
2017-11-30T02:56:45.560Z,98207.02
2017-11-30T02:59:20.250Z,98200.96
2017-11-30T03:01:51.962Z,98204.36
2017-11-30T03:04:24.373Z,98198.83
2017-11-30T03:06:58.532Z,98190.30
2017-11-30T03:09:33.010Z,98193.17
2017-11-30T03:12:05.508Z,98189.22
2017-11-30T03:14:39.113Z,98199.34
2017-11-30T03:17:14.184Z,98194.50
2017-11-30T03:19:46.883Z,98185.96
2017-11-30T03:22:23.461Z,98196.53
2017-11-30T03:25:09.084Z,98190.65
2017-11-30T03:27:42.125Z,98155.13
2017-11-30T03:30:14.885Z,98162.88
2017-11-30T03:32:47.331Z,98164.16
2017-11-30T03:35:19.109Z,98197.29
2017-11-30T03:37:51.372Z,98189.45
2017-11-30T03:40:25.602Z,98186.59
2017-11-30T03:43:00.816Z,98180.48
2017-11-30T03:45:32.195Z,98178.12
2017-11-30T03:48:04.587Z,98174.61
2017-11-30T03:50:37.500Z,98175.06
2017-11-30T03:53:09.079Z,98168.45
2017-11-30T03:55:43.793Z,98168.94
2017-11-30T03:58:18.407Z,98168.30
2017-11-30T04:00:49.566Z,98164.67
2017-11-30T04:03:20.809Z,98166.78
2017-11-30T04:05:53.660Z,98161.60
2017-11-30T04:08:26.212Z,98164.87
2017-11-30T04:14:27.508Z,98173.39
2017-11-30T04:16:58.744Z,98177.14
2017-11-30T04:19:33.361Z,98169.05
2017-11-30T04:22:07.105Z,98179.80
2017-11-30T04:24:39.576Z,98183.05
2017-11-30T04:27:10.609Z,98173.73
2017-11-30T04:29:46.279Z,98172.05
2017-11-30T04:32:25.833Z,98168.91
2017-11-30T04:34:56.860Z,98164.13
2017-11-30T04:37:29.273Z,98138.68
2017-11-30T04:40:04.728Z,98151.24
2017-11-30T04:42:36.907Z,98164.75
2017-11-30T04:45:17.887Z,98161.95
2017-11-30T04:47:49.088Z,98164.96
2017-11-30T04:53:39.771Z,98162.83
2017-11-30T04:56:13.185Z,98169.44
2017-11-30T04:58:44.909Z,98166.48
2017-11-30T05:01:20.173Z,98148.19
2017-11-30T05:03:51.347Z,98156.22
2017-11-30T05:06:24.054Z,98166.52
2017-11-30T05:08:55.373Z,98167.61
2017-11-30T05:11:27.007Z,98171.00
2017-11-30T05:13:58.788Z,98167.80
2017-11-30T05:16:30.559Z,98171.88
2017-11-30T05:19:02.817Z,98164.98
2017-11-30T05:21:38.614Z,98168.97
2017-11-30T05:24:17.174Z,98146.69
2017-11-30T05:26:50.077Z,98172.58
2017-11-30T05:29:27.170Z,98170.28
2017-11-30T05:31:59.218Z,98172.39
2017-11-30T05:34:32.087Z,98174.91
2017-11-30T05:37:08.648Z,98169.88
2017-11-30T05:39:41.094Z,98166.48
2017-11-30T05:42:23.350Z,98168.80
2017-11-30T05:44:55.047Z,98168.41
2017-11-30T05:47:28.549Z,98154.73
2017-11-30T05:50:06.288Z,98165.63
2017-11-30T05:52:39.751Z,98162.30
2017-11-30T05:55:21.966Z,98160.17
2017-11-30T05:57:57.674Z,98167.33
2017-11-30T06:00:31.803Z,98167.86
2017-11-30T06:03:04.557Z,98142.41
2017-11-30T06:05:41.044Z,98155.53
2017-11-30T06:08:18.350Z,98161.00
2017-11-30T06:10:54.424Z,98157.98
2017-11-30T06:13:33.588Z,98157.84
2017-11-30T06:16:09.900Z,98153.53
2017-11-30T06:18:41.786Z,98156.06
2017-11-30T06:21:13.346Z,98162.44
2017-11-30T06:23:45.829Z,98150.31
2017-11-30T06:26:25.973Z,98159.33
2017-11-30T06:31:46.603Z,98166.28
2017-11-30T06:34:35.496Z,98156.97
2017-11-30T06:37:08.133Z,98159.03
2017-11-30T06:39:44.279Z,98159.13
2017-11-30T06:42:17.368Z,98156.41
2017-11-30T06:44:51.164Z,98156.17
2017-11-30T06:47:33.154Z,98137.42
2017-11-30T06:50:11.576Z,98138.84
2017-11-30T06:52:50.164Z,98134.22
2017-11-30T06:55:22.205Z,98153.05
2017-11-30T06:57:57.720Z,98146.94
2017-11-30T07:00:34.946Z,98154.20
2017-11-30T07:03:10.877Z,98145.42
2017-11-30T07:05:46.335Z,98149.17
2017-11-30T07:08:19.358Z,98139.75
2017-11-30T07:10:53.294Z,98147.41
2017-11-30T07:13:28.559Z,98149.52
2017-11-30T07:16:00.416Z,98149.66
2017-11-30T07:18:32.647Z,98154.55
2017-11-30T07:21:10.093Z,98167.41
2017-11-30T07:23:41.706Z,98170.27
2017-11-30T07:26:14.314Z,98169.24
2017-11-30T07:28:47.113Z,98166.09
2017-11-30T07:31:18.479Z,98171.16
2017-11-30T07:33:55.079Z,98172.00
2017-11-30T07:36:28.950Z,98159.75
2017-11-30T07:39:01.950Z,98175.75
2017-11-30T07:41:39.954Z,98169.77
2017-11-30T07:44:16.537Z,98172.73
2017-11-30T07:46:50.245Z,98163.78
2017-11-30T07:49:26.953Z,98172.83
2017-11-30T07:51:59.720Z,98165.34
2017-11-30T07:54:31.660Z,98166.58
2017-11-30T07:57:05.220Z,98157.01
2017-11-30T08:01:01.101Z,98159.56
2017-11-30T08:03:32.227Z,98164.61
2017-11-30T08:06:06.449Z,98150.03
2017-11-30T08:08:41.179Z,98145.03
2017-11-30T08:11:13.579Z,98160.56
2017-11-30T08:13:48.000Z,98153.36
2017-11-30T08:16:22.218Z,98155.63
2017-11-30T08:18:54.288Z,98155.70
2017-11-30T08:21:27.677Z,98158.07
2017-11-30T08:24:02.102Z,98157.89
2017-11-30T08:26:35.395Z,98161.20
2017-11-30T08:29:09.945Z,98159.32
2017-11-30T08:31:47.166Z,98154.42
2017-11-30T08:34:19.155Z,98150.58
2017-11-30T08:36:58.964Z,98154.64
2017-11-30T08:39:32.874Z,98154.80
2017-11-30T08:42:11.822Z,98147.11
2017-11-30T08:44:49.696Z,98147.51
2017-11-30T08:47:23.116Z,98149.75
2017-11-30T08:49:59.138Z,98148.02
2017-11-30T08:52:31.492Z,98120.28
2017-11-30T08:55:24.875Z,98152.47
2017-11-30T08:57:56.568Z,98151.83
2017-11-30T09:00:29.921Z,98150.89
2017-11-30T09:03:01.808Z,98155.98
2017-11-30T09:05:33.047Z,98155.73
2017-11-30T09:08:05.500Z,98162.88
2017-11-30T09:10:38.834Z,98155.34
2017-11-30T09:13:10.041Z,98164.85
2017-11-30T09:15:42.455Z,98154.34
2017-11-30T09:18:23.885Z,98172.45
2017-11-30T09:20:55.991Z,98168.64
2017-11-30T09:23:27.743Z,98162.86
2017-11-30T09:25:59.080Z,98161.67
2017-11-30T09:28:30.338Z,98166.64
2017-11-30T09:31:02.894Z,98167.03
2017-11-30T09:33:36.012Z,98165.35
2017-11-30T09:36:09.823Z,98165.58
2017-11-30T09:38:40.962Z,98163.14
2017-11-30T09:41:12.338Z,98154.23
2017-11-30T09:43:43.992Z,98155.07
2017-11-30T09:46:15.126Z,98152.03
2017-11-30T09:48:46.252Z,98160.57
2017-11-30T09:51:18.003Z,98156.33
2017-11-30T09:53:49.917Z,98159.23
2017-11-30T09:56:21.223Z,98149.42
2017-11-30T09:58:52.872Z,98160.42
2017-11-30T10:01:25.415Z,98157.10
2017-11-30T10:03:57.045Z,98153.83
2017-11-30T10:06:29.850Z,98155.23
2017-11-30T10:09:00.897Z,98156.72
2017-11-30T10:11:32.640Z,98150.06
2017-11-30T10:14:04.106Z,98156.11
2017-11-30T10:16:35.241Z,98140.56
2017-11-30T10:19:06.585Z,98151.80
2017-11-30T10:21:38.150Z,98146.53
2017-11-30T10:24:09.298Z,98139.39
2017-11-30T10:26:40.797Z,98141.75
2017-11-30T10:29:12.629Z,98136.03
2017-11-30T10:31:44.865Z,98139.00
2017-11-30T10:34:17.321Z,98143.70
2017-11-30T10:36:48.454Z,98133.97
2017-11-30T10:39:19.872Z,98135.48
2017-11-30T10:41:52.792Z,98134.16
2017-11-30T10:44:23.867Z,98132.48
2017-11-30T10:46:55.346Z,98139.72
2017-11-30T10:49:27.888Z,98127.08
2017-11-30T10:51:59.106Z,98122.38
2017-11-30T10:54:30.554Z,98129.83
2017-11-30T10:57:01.994Z,98124.34
2017-11-30T10:59:33.082Z,98125.73
2017-11-30T11:02:04.562Z,98126.86
2017-11-30T11:04:35.752Z,98127.48
2017-11-30T11:07:07.377Z,98128.89
2017-11-30T11:09:38.873Z,98129.34
2017-11-30T11:12:10.566Z,98127.22
2017-11-30T11:14:41.920Z,98128.92
2017-11-30T11:17:14.399Z,98125.14
2017-11-30T11:19:45.553Z,98134.37
2017-11-30T11:22:17.822Z,98129.17
2017-11-30T11:24:49.076Z,98131.93
2017-11-30T11:27:20.124Z,98135.08
2017-11-30T11:29:51.639Z,98127.70
2017-11-30T11:32:23.011Z,98129.97
2017-11-30T11:34:54.591Z,98128.86
2017-11-30T11:37:27.754Z,98123.98
2017-11-30T11:39:59.251Z,98124.08
2017-11-30T11:42:30.333Z,98124.97
2017-11-30T11:45:01.822Z,98118.37
2017-11-30T11:47:34.027Z,98131.62
2017-11-30T11:50:07.497Z,98124.70
2017-11-30T11:52:39.088Z,98127.48
2017-11-30T11:55:10.661Z,98129.28
2017-11-30T11:57:42.499Z,98125.47
2017-11-30T12:00:14.138Z,98134.31
2017-11-30T12:02:45.529Z,98137.94
2017-11-30T12:05:16.663Z,98138.80
2017-11-30T12:07:48.299Z,98132.84
2017-11-30T12:10:27.952Z,98137.34
2017-11-30T12:13:03.511Z,98126.75
2017-11-30T12:15:38.236Z,98130.20
2017-11-30T12:18:09.965Z,98127.53
2017-11-30T12:20:42.185Z,98132.03
2017-11-30T12:23:14.326Z,98122.12
2017-11-30T12:25:54.880Z,98130.22
2017-11-30T12:28:28.087Z,98133.19
2017-11-30T12:31:01.482Z,98125.82
2017-11-30T12:33:34.985Z,98117.98
2017-11-30T12:36:15.902Z,98125.03
2017-11-30T12:38:51.699Z,98127.39
2017-11-30T12:41:24.430Z,98117.34
2017-11-30T12:43:57.029Z,98115.53
2017-11-30T12:46:35.931Z,98114.05
2017-11-30T12:49:11.323Z,98111.21
2017-11-30T12:51:43.095Z,98111.44
2017-11-30T12:54:15.207Z,98118.17
2017-11-30T12:56:49.230Z,98110.08
2017-11-30T12:59:21.202Z,98111.78
2017-11-30T13:01:53.335Z,98119.47
2017-11-30T13:04:26.454Z,98119.23
2017-11-30T13:07:00.387Z,98117.05
2017-11-30T13:09:32.189Z,98115.78
2017-11-30T13:12:15.220Z,98119.13
2017-11-30T13:14:46.646Z,98119.31
2017-11-30T13:17:19.620Z,98123.14
2017-11-30T13:19:50.970Z,98113.27
2017-11-30T13:22:23.317Z,98106.55
2017-11-30T13:24:55.056Z,98115.11
2017-11-30T13:27:26.869Z,98111.74
2017-11-30T13:29:59.683Z,98110.89
2017-11-30T13:32:31.650Z,98105.33
2017-11-30T13:35:03.481Z,98119.93
2017-11-30T13:37:35.279Z,98121.83
2017-11-30T13:40:07.143Z,98130.29
2017-11-30T13:42:39.211Z,98125.52
2017-11-30T13:45:10.691Z,98119.17
2017-11-30T13:47:43.240Z,98117.42
2017-11-30T13:50:15.417Z,98125.52
2017-11-30T13:52:46.692Z,98126.53
2017-11-30T13:55:19.265Z,98122.47
2017-11-30T13:57:53.052Z,98127.47
2017-11-30T14:00:24.943Z,98125.52
2017-11-30T14:02:57.592Z,98125.43
2017-11-30T14:05:28.842Z,98116.23
2017-11-30T14:08:02.612Z,98125.41
2017-11-30T14:10:33.837Z,98131.44
2017-11-30T14:13:06.768Z,98117.97
2017-11-30T14:15:37.984Z,98125.56
2017-11-30T14:18:09.343Z,98127.84
2017-11-30T14:20:40.889Z,98130.72
2017-11-30T14:23:12.235Z,98120.05
2017-11-30T14:25:43.634Z,98118.11
2017-11-30T14:28:14.902Z,98120.63
2017-11-30T14:30:47.448Z,98129.47
2017-11-30T14:33:19.393Z,98132.16
2017-11-30T14:35:50.407Z,98130.06
2017-11-30T14:38:22.294Z,98129.36
2017-11-30T14:40:54.317Z,98136.90
2017-11-30T14:43:26.027Z,98133.84
2017-11-30T14:45:58.213Z,98135.80
2017-11-30T14:48:29.512Z,98132.34
2017-11-30T14:51:01.053Z,98135.64
2017-11-30T14:53:32.677Z,98140.09
2017-11-30T14:56:04.589Z,98150.55
2017-11-30T14:58:37.210Z,98142.23
2017-11-30T15:01:09.409Z,98136.27
2017-11-30T15:03:41.384Z,98150.38
2017-11-30T15:06:13.487Z,98148.41
2017-11-30T15:08:44.901Z,98153.58
2017-11-30T15:11:16.615Z,98152.26
2017-11-30T15:13:47.920Z,98153.98
2017-11-30T15:16:19.928Z,98155.21
2017-11-30T15:18:52.496Z,98151.82
2017-11-30T15:21:24.405Z,98157.06
2017-11-30T15:23:56.223Z,98165.22
2017-11-30T15:26:27.282Z,98164.58
2017-11-30T15:29:03.599Z,98166.70
2017-11-30T15:31:36.331Z,98164.83
2017-11-30T15:34:08.242Z,98166.46
2017-11-30T15:36:39.990Z,98173.42
2017-11-30T15:39:12.930Z,98165.43
2017-11-30T15:41:44.548Z,98167.91
2017-11-30T15:44:16.888Z,98157.80
2017-11-30T15:46:48.585Z,98168.60
2017-11-30T15:49:19.881Z,98170.88
2017-11-30T15:51:53.071Z,98171.32
2017-11-30T15:54:26.071Z,98172.35
2017-11-30T15:56:58.566Z,98165.44
2017-11-30T15:59:31.340Z,98171.91
2017-11-30T16:02:03.241Z,98163.92
2017-11-30T16:04:35.266Z,98171.16
2017-11-30T16:07:08.336Z,98177.64
2017-11-30T16:09:39.749Z,98177.98
2017-11-30T16:12:12.436Z,98178.28
2017-11-30T16:14:45.051Z,98174.72
2017-11-30T16:17:19.242Z,98178.47
2017-11-30T16:19:50.523Z,98181.38
2017-11-30T16:22:23.024Z,98183.05
2017-11-30T16:24:54.958Z,98172.78
2017-11-30T16:27:27.492Z,98174.91
2017-11-30T16:30:02.018Z,98177.66
2017-11-30T16:32:35.965Z,98183.45
2017-11-30T16:35:09.955Z,98177.72
2017-11-30T16:37:41.917Z,98176.72
2017-11-30T16:40:14.080Z,98181.27
2017-11-30T16:42:46.222Z,98181.97
2017-11-30T16:45:18.176Z,98176.24
2017-11-30T16:47:51.572Z,98186.14
2017-11-30T16:50:23.943Z,98188.56
2017-11-30T16:52:55.665Z,98191.72
2017-11-30T16:55:26.990Z,98190.30
2017-11-30T16:57:59.749Z,98188.33
2017-11-30T17:00:32.931Z,98195.14
2017-11-30T17:03:05.467Z,98193.41
2017-11-30T17:05:37.811Z,98190.41
2017-11-30T17:08:09.700Z,98198.34
2017-11-30T17:27:06.756Z,98200.77
2017-11-30T17:29:39.604Z,98210.13
2017-11-30T17:32:11.551Z,98198.39
2017-11-30T17:34:44.876Z,98206.52
2017-11-30T17:37:16.416Z,98211.84
2017-11-30T17:39:48.491Z,98208.84
2017-11-30T17:42:19.878Z,98217.47
2017-11-30T17:44:51.783Z,98214.41
2017-11-30T17:47:23.767Z,98221.16
2017-11-30T17:49:56.940Z,98227.88
2017-11-30T17:52:29.538Z,98227.58
2017-11-30T17:55:00.816Z,98223.83
2017-11-30T17:57:32.601Z,98231.92
2017-11-30T18:00:04.451Z,98234.50
2017-11-30T18:02:36.007Z,98236.72
2017-11-30T18:05:11.520Z,98235.80
2017-11-30T18:07:44.258Z,98231.24
2017-11-30T18:10:16.614Z,98231.55
2017-11-30T18:12:47.960Z,98238.95
2017-11-30T18:15:20.531Z,98245.32
2017-11-30T18:17:52.533Z,98243.05
2017-11-30T18:20:24.055Z,98241.18
2017-11-30T18:22:57.276Z,98250.94
2017-11-30T18:25:34.134Z,98239.25
2017-11-30T18:28:06.067Z,98242.47
2017-11-30T18:30:37.831Z,98249.81
2017-11-30T18:33:09.289Z,98248.19
2017-11-30T18:35:40.923Z,98239.66
2017-11-30T18:38:13.019Z,98243.05
2017-11-30T18:40:44.974Z,98248.17
2017-11-30T18:43:21.927Z,98247.23
2017-11-30T18:45:53.481Z,98249.95
2017-11-30T18:48:27.354Z,98256.86
2017-11-30T18:50:58.978Z,98253.16
2017-11-30T18:53:32.621Z,98256.13
2017-11-30T18:56:05.578Z,98264.76
2017-11-30T18:58:38.613Z,98258.80
2017-11-30T19:01:12.315Z,98254.16
2017-11-30T19:03:44.051Z,98256.96
2017-11-30T19:06:16.747Z,98260.11
2017-11-30T19:08:48.937Z,98264.95
2017-11-30T19:11:21.864Z,98271.82
2017-11-30T19:13:54.124Z,98270.27
2017-11-30T19:16:27.267Z,98271.76
2017-11-30T19:18:59.189Z,98265.70
2017-11-30T19:21:33.922Z,98272.90
2017-11-30T19:24:07.306Z,98274.71
2017-11-30T19:26:42.074Z,98278.46
2017-11-30T19:29:19.414Z,98279.49
2017-11-30T19:31:54.744Z,98286.70
2017-11-30T19:34:27.180Z,98290.66
2017-11-30T19:37:08.917Z,98290.98
2017-11-30T19:39:43.461Z,98289.06
2017-11-30T19:42:17.478Z,98297.49
2017-11-30T19:44:51.173Z,98299.13
2017-11-30T19:47:34.446Z,98302.18
2017-11-30T19:50:17.330Z,98304.61
2017-11-30T19:52:55.552Z,98306.14
2017-11-30T19:55:35.747Z,98307.97
2017-11-30T19:58:16.715Z,98306.31
2017-11-30T20:00:52.890Z,98309.16
2017-11-30T20:03:25.830Z,98311.89
2017-11-30T20:05:58.900Z,98308.14
2017-11-30T20:08:34.851Z,98320.08
2017-11-30T20:11:15.898Z,98318.75
2017-11-30T20:13:57.696Z,98323.20
2017-11-30T20:16:33.698Z,98322.66
2017-11-30T20:19:07.718Z,98324.53
2017-11-30T20:21:44.657Z,98318.09
2017-11-30T20:24:16.233Z,98326.66
2017-11-30T20:26:54.893Z,98332.08
2017-11-30T20:29:34.791Z,98325.72
2017-11-30T20:32:12.263Z,98326.11
2017-11-30T20:34:50.694Z,98335.83
2017-11-30T20:37:24.107Z,98332.86
2017-11-30T20:39:55.668Z,98332.53
2017-11-30T20:42:30.796Z,98336.81
2017-11-30T20:45:05.723Z,98332.28
2017-11-30T20:47:37.746Z,98327.25
2017-11-30T20:50:12.902Z,98340.23
2017-11-30T20:52:46.533Z,98332.92
2017-11-30T20:55:21.438Z,98337.08
2017-11-30T20:57:54.936Z,98334.84
2017-11-30T21:00:27.061Z,98335.94
2017-11-30T21:02:58.603Z,98340.27
2017-11-30T21:05:31.332Z,98338.70
2017-11-30T21:08:03.185Z,98353.05
2017-11-30T21:10:35.759Z,98350.94
2017-11-30T21:13:09.904Z,98347.14
2017-11-30T21:15:41.957Z,98346.28
2017-11-30T21:18:13.771Z,98339.98
2017-11-30T21:20:45.524Z,98338.25
2017-11-30T21:23:17.858Z,98345.09
2017-11-30T21:25:50.314Z,98349.30
2017-11-30T21:28:22.574Z,98352.98
2017-11-30T21:30:56.038Z,98355.91
2017-11-30T21:33:28.210Z,98362.17
2017-11-30T21:35:59.948Z,98357.29
2017-11-30T21:38:32.509Z,98359.56
2017-11-30T21:41:11.009Z,98359.79
2017-11-30T21:43:46.392Z,98367.29
2017-11-30T21:46:20.449Z,98362.80
2017-11-30T21:48:53.668Z,98367.84
2017-11-30T21:51:27.816Z,98362.41
2017-11-30T21:54:01.644Z,98371.98
2017-11-30T21:56:34.173Z,98370.41
2017-11-30T21:59:15.509Z,98370.73
2017-11-30T22:45:35.399Z,98394.98
2017-11-30T22:48:09.598Z,98393.72
2017-11-30T22:50:42.586Z,98396.60
2017-11-30T22:53:18.671Z,98407.20
2017-11-30T22:55:51.775Z,98402.73
2017-11-30T22:58:23.596Z,98410.34
2017-11-30T23:00:56.557Z,98416.25
2017-11-30T23:03:30.373Z,98408.66
2017-11-30T23:06:03.640Z,98409.06
2017-11-30T23:08:41.872Z,98419.30
